Time;durP1;ratioP1;P1;durP2;ratioP2;P2;SDS_P1;SDS_P2;PMS_P1;PMS_P2;Temp;Humidity;BMP_temperature;BMP_pressure;BME280_temperature;BME280_humidity;BME280_pressure;Samples;Min_cycle;Max_cycle;Signal;HPM_P1;HPM_P2
2024/01/20 00:00:31;;;;;;;30.55;18.67;;;;;;;0.42;100.00;102514.41;5067268;28;20174;-67
2024/01/20 00:03:19;;;;;;;29.95;19.27;;;;;;;0.44;100.00;102519.63;5071773;28;20045;-67
2024/01/20 00:06:07;;;;;;;37.00;23.38;;;;;;;0.43;100.00;102524.09;5073937;28;20457;-66
2024/01/20 00:08:55;;;;;;;31.88;19.35;;;;;;;0.45;100.00;102519.44;5076321;28;20501;-66
2024/01/20 00:11:44;;;;;;;34.72;21.33;;;;;;;0.43;100.00;102524.09;5074443;28;20540;-68
2024/01/20 00:14:32;;;;;;;36.88;22.67;;;;;;;0.41;100.00;102524.28;5072747;28;20048;-67
2024/01/20 00:17:20;;;;;;;35.00;22.60;;;;;;;0.42;100.00;102525.13;5045822;28;20051;-67
2024/01/20 00:20:14;;;;;;;34.92;21.83;;;;;;;0.47;100.00;102536.22;5071797;28;20048;-67
2024/01/20 00:23:02;;;;;;;35.50;22.40;;;;;;;0.44;100.00;102531.16;5073716;28;20105;-67
2024/01/20 00:25:50;;;;;;;27.65;17.25;;;;;;;0.66;100.00;102532.47;5073845;28;20053;-66
2024/01/20 00:28:39;;;;;;;35.25;21.75;;;;;;;0.51;100.00;102529.53;5083155;28;20040;-66
2024/01/20 00:31:28;;;;;;;31.00;20.00;;;;;;;0.47;100.00;102544.25;5072686;28;20421;-66
2024/01/20 00:34:17;;;;;;;26.92;17.73;;;;;;;0.42;100.00;102547.41;5047666;28;20051;-66
2024/01/20 00:37:04;;;;;;;33.28;20.83;;;;;;;0.44;100.00;102541.06;5059029;28;20428;-66
2024/01/20 00:39:53;;;;;;;28.45;18.65;;;;;;;0.46;100.00;102536.34;5074912;28;20052;-67
2024/01/20 00:42:41;;;;;;;29.48;18.25;;;;;;;0.42;100.00;102539.38;5059260;28;20045;-65
2024/01/20 00:45:29;;;;;;;32.42;20.17;;;;;;;0.45;100.00;102529.31;5060153;28;20174;-66
2024/01/20 00:48:17;;;;;;;33.60;20.42;;;;;;;0.47;100.00;102532.69;5059319;28;20130;-66
2024/01/20 00:51:05;;;;;;;30.90;18.67;;;;;;;0.47;100.00;102530.84;5060551;28;20044;-66
2024/01/20 00:53:53;;;;;;;33.08;20.52;;;;;;;0.45;100.00;102527.47;5075475;28;20060;-66
2024/01/20 00:56:41;;;;;;;29.00;18.10;;;;;;;0.48;100.00;102523.63;5082463;28;20512;-67
2024/01/20 00:59:29;;;;;;;28.17;17.27;;;;;;;0.44;100.00;102520.44;5075950;28;20044;-65
2024/01/20 01:02:18;;;;;;;32.67;18.55;;;;;;;0.40;100.00;102527.94;5039386;28;20108;-67
2024/01/20 01:05:07;;;;;;;33.60;18.60;;;;;;;0.40;100.00;102524.44;5054107;28;20056;-67
2024/01/20 01:07:56;;;;;;;31.83;19.45;;;;;;;0.38;100.00;102524.59;5029115;28;20110;-65
2024/01/20 01:10:45;;;;;;;32.63;19.80;;;;;;;0.39;100.00;102525.44;5060294;28;20054;-66
2024/01/20 01:13:35;;;;;;;26.23;16.15;;;;;;;0.42;100.00;102525.13;5060766;28;20055;-67
2024/01/20 01:16:23;;;;;;;31.05;19.13;;;;;;;0.46;100.00;102531.00;5082207;28;20492;-66
2024/01/20 01:19:11;;;;;;;29.23;17.45;;;;;;;0.46;100.00;102533.69;5066578;28;20120;-67
2024/01/20 01:21:59;;;;;;;34.15;19.90;;;;;;;0.39;100.00;102537.00;5040100;28;20049;-66
2024/01/20 01:24:47;;;;;;;29.23;17.20;;;;;;;0.40;100.00;102527.94;5064938;28;20068;-67
2024/01/20 01:27:36;;;;;;;31.92;19.88;;;;;;;0.39;100.00;102523.59;5079239;28;20500;-65
2024/01/20 01:30:24;;;;;;;33.72;19.88;;;;;;;0.36;100.00;102520.38;5095438;28;20154;-67
2024/01/20 01:33:12;;;;;;;24.13;14.50;;;;;;;0.40;100.00;102530.63;5052976;28;20135;-66
2024/01/20 01:36:00;;;;;;;27.63;17.13;;;;;;;0.39;100.00;102531.66;5070533;28;20064;-67
2024/01/20 01:38:48;;;;;;;29.00;16.05;;;;;;;0.48;100.00;102542.41;5043784;28;20137;-66
2024/01/20 01:41:36;;;;;;;29.60;18.23;;;;;;;0.41;100.00;102545.75;5046145;28;20160;-66
2024/01/20 01:44:24;;;;;;;26.15;15.43;;;;;;;0.40;100.00;102546.72;5047266;28;20501;-66
2024/01/20 01:47:12;;;;;;;30.95;19.02;;;;;;;0.40;100.00;102554.75;5060730;28;20088;-66
2024/01/20 01:50:02;;;;;;;36.53;20.50;;;;;;;0.38;100.00;102555.91;5058771;28;20052;-67
2024/01/20 01:52:50;;;;;;;30.52;19.35;;;;;;;0.33;100.00;102559.06;5053234;28;20131;-66
2024/01/20 01:55:39;;;;;;;31.48;18.90;;;;;;;0.37;100.00;102564.97;5040752;28;20178;-67
2024/01/20 01:58:27;;;;;;;28.98;18.67;;;;;;;0.39;100.00;102563.81;5038433;28;20132;-67
2024/01/20 02:01:15;;;;;;;28.45;18.67;;;;;;;0.37;100.00;102554.25;5053405;28;20056;-67
2024/01/20 02:04:03;;;;;;;28.13;17.05;;;;;;;0.35;100.00;102562.44;5054553;28;20047;-66
2024/01/20 02:06:52;;;;;;;28.92;18.70;;;;;;;0.34;100.00;102570.66;5047700;28;20044;-66
2024/01/20 02:09:40;;;;;;;28.75;18.05;;;;;;;0.35;100.00;102561.59;5073816;28;20132;-67
2024/01/20 02:12:28;;;;;;;28.23;17.60;;;;;;;0.35;100.00;102573.16;5067592;28;20118;-67
2024/01/20 02:15:17;;;;;;;31.73;19.23;;;;;;;0.33;100.00;102575.16;5036176;28;20047;-66
2024/01/20 02:18:06;;;;;;;28.63;17.63;;;;;;;0.32;100.00;102586.91;5074267;28;20044;-66
2024/01/20 02:20:54;;;;;;;29.20;17.45;;;;;;;0.32;100.00;102584.22;5058057;28;20134;-66
2024/01/20 02:23:43;;;;;;;26.27;16.17;;;;;;;0.32;100.00;102599.47;5059324;28;20041;-67
2024/01/20 02:26:32;;;;;;;29.17;18.77;;;;;;;0.36;100.00;102579.38;5034001;28;20475;-66
2024/01/20 02:29:20;;;;;;;30.33;18.92;;;;;;;0.35;100.00;102589.25;5072089;28;20098;-67
2024/01/20 02:32:08;;;;;;;27.33;16.58;;;;;;;0.34;100.00;102581.38;5071662;28;20167;-66
2024/01/20 02:34:56;;;;;;;25.65;15.52;;;;;;;0.37;100.00;102581.06;5071486;28;20060;-66
2024/01/20 02:37:44;;;;;;;27.83;16.50;;;;;;;0.41;100.00;102583.28;5058363;28;20040;-66
2024/01/20 02:40:32;;;;;;;29.08;16.85;;;;;;;0.36;100.00;102585.59;5059099;28;20511;-66
2024/01/20 02:43:20;;;;;;;26.60;16.85;;;;;;;0.34;100.00;102582.22;5073991;28;20040;-67
2024/01/20 02:46:08;;;;;;;25.90;15.57;;;;;;;0.38;100.00;102583.56;5071490;28;20493;-67
2024/01/20 02:48:56;;;;;;;21.10;12.20;;;;;;;0.37;100.00;102587.25;5024401;28;20131;-66
2024/01/20 02:51:44;;;;;;;29.60;18.08;;;;;;;0.33;100.00;102569.78;5078507;28;20056;-67
2024/01/20 02:54:32;;;;;;;24.58;14.57;;;;;;;0.35;100.00;102573.16;5080253;28;20139;-68
2024/01/20 02:57:20;;;;;;;26.38;16.75;;;;;;;0.34;100.00;102576.03;5056918;28;20052;-63
2024/01/20 03:00:09;;;;;;;26.85;15.73;;;;;;;0.32;100.00;102578.84;5064798;28;20063;-66
2024/01/20 03:02:57;;;;;;;23.50;14.52;;;;;;;0.37;100.00;102578.38;5073660;28;20567;-65
2024/01/20 03:05:45;;;;;;;21.38;14.30;;;;;;;0.37;100.00;102575.69;5076785;28;20049;-66
2024/01/20 03:08:33;;;;;;;26.33;16.27;;;;;;;0.35;100.00;102586.56;5069679;28;20064;-66
2024/01/20 03:11:21;;;;;;;27.80;17.77;;;;;;;0.34;100.00;102584.06;5066350;28;20584;-66
2024/01/20 03:14:12;;;;;;;31.45;19.38;;;;;;;0.33;100.00;102585.88;5072344;28;20048;-67
2024/01/20 03:17:00;;;;;;;27.45;16.63;;;;;;;0.32;100.00;102592.25;5071037;28;20134;-66
2024/01/20 03:19:48;;;;;;;24.45;15.48;;;;;;;0.31;100.00;102587.03;5072563;28;20041;-66
2024/01/20 03:22:36;;;;;;;25.67;16.63;;;;;;;0.31;100.00;102597.75;5047266;28;20477;-67
2024/01/20 03:25:24;;;;;;;24.70;16.20;;;;;;;0.31;100.00;102598.59;5072371;28;20138;-66
2024/01/20 03:28:12;;;;;;;22.42;14.63;;;;;;;0.36;100.00;102598.13;5044139;28;20131;-67
2024/01/20 03:31:01;;;;;;;20.95;13.77;;;;;;;0.45;100.00;102599.03;5056647;28;20118;-68
2024/01/20 03:33:49;;;;;;;21.88;13.52;;;;;;;0.42;100.00;102601.03;5071669;28;20416;-67
2024/01/20 03:36:37;;;;;;;25.80;17.30;;;;;;;0.44;100.00;102600.88;5058137;28;20135;-67
2024/01/20 03:39:25;;;;;;;24.02;15.27;;;;;;;0.41;100.00;102604.72;5070690;28;20527;-67
2024/01/20 03:42:13;;;;;;;22.23;14.40;;;;;;;0.36;100.00;102607.03;5073445;28;20055;-66
2024/01/20 03:45:01;;;;;;;25.00;16.20;;;;;;;0.38;100.00;102607.69;5072125;28;20164;-67
2024/01/20 03:47:49;;;;;;;25.23;15.88;;;;;;;0.33;100.00;102607.34;5056831;28;20479;-68
2024/01/20 03:50:38;;;;;;;28.80;18.58;;;;;;;0.29;100.00;102616.72;5053224;28;20103;-66
2024/01/20 03:53:27;;;;;;;22.90;15.27;;;;;;;0.29;100.00;102616.72;5051661;28;20167;-67
2024/01/20 03:56:15;;;;;;;26.25;17.05;;;;;;;0.27;100.00;102610.66;5059934;28;20059;-65
2024/01/20 03:59:03;;;;;;;28.35;17.88;;;;;;;0.33;100.00;102614.53;5055711;28;20102;-67
2024/01/20 04:01:51;;;;;;;26.85;16.35;;;;;;;0.30;100.00;102599.59;5056209;28;20040;-67
2024/01/20 04:04:39;;;;;;;25.58;15.98;;;;;;;0.33;100.00;102603.81;5072741;28;20137;-67
2024/01/20 04:07:27;;;;;;;27.48;17.42;;;;;;;0.33;100.00;102593.09;5071219;28;20060;-67
2024/01/20 04:10:15;;;;;;;26.33;17.00;;;;;;;0.30;100.00;102602.28;5057559;28;20577;-67
2024/01/20 04:13:03;;;;;;;27.73;17.75;;;;;;;0.24;100.00;102605.63;5074990;28;20535;-66
2024/01/20 04:15:53;;;;;;;29.00;17.55;;;;;;;0.18;100.00;102608.91;5051268;28;20053;-66
2024/01/20 04:18:41;;;;;;;28.58;18.70;;;;;;;0.13;100.00;102611.22;5055488;28;20497;-66
2024/01/20 04:21:29;;;;;;;29.13;19.10;;;;;;;0.13;100.00;102613.88;5062588;28;20149;-66
2024/01/20 04:24:18;;;;;;;22.92;14.70;;;;;;;0.12;100.00;102614.88;5072616;28;20041;-67
2024/01/20 04:27:06;;;;;;;24.63;16.52;;;;;;;0.18;100.00;102614.25;5074025;28;20052;-66
2024/01/20 04:29:54;;;;;;;25.48;17.45;;;;;;;0.23;100.00;102614.63;5060346;28;20432;-67
2024/01/20 04:32:42;;;;;;;28.05;18.58;;;;;;;0.27;100.00;102624.06;5074927;28;20067;-67
2024/01/20 04:35:30;;;;;;;26.48;15.68;;;;;;;0.30;100.00;102623.75;5055228;28;20049;-66
2024/01/20 04:38:18;;;;;;;22.77;14.18;;;;;;;0.29;100.00;102627.44;5054035;28;20437;-67
2024/01/20 04:41:06;;;;;;;25.10;16.23;;;;;;;0.26;100.00;102627.72;5058959;28;20165;-67
2024/01/20 04:43:54;;;;;;;25.73;16.25;;;;;;;0.29;100.00;102629.25;5060089;28;20108;-67
2024/01/20 04:46:42;;;;;;;27.25;16.20;;;;;;;0.31;100.00;102632.63;5061940;28;20075;-67
2024/01/20 04:49:30;;;;;;;23.83;15.52;;;;;;;0.31;100.00;102627.25;5041469;28;20045;-65
2024/01/20 04:52:19;;;;;;;30.98;17.75;;;;;;;0.28;100.00;102631.09;5056103;28;20052;-68
2024/01/20 04:55:08;;;;;;;24.40;15.43;;;;;;;0.29;100.00;102638.16;5044848;28;20080;-67
2024/01/20 04:57:56;;;;;;;23.25;14.90;;;;;;;0.32;100.00;102631.63;5046765;28;20044;-68
2024/01/20 05:00:44;;;;;;;26.35;17.30;;;;;;;0.31;100.00;102637.97;5075012;28;20127;-67
2024/01/20 05:03:33;;;;;;;23.42;15.15;;;;;;;0.28;100.00;102636.44;5060452;28;20416;-66
2024/01/20 05:06:21;;;;;;;22.05;13.95;;;;;;;0.32;100.00;102637.84;5056218;28;20148;-67
2024/01/20 05:09:10;;;;;;;23.38;14.32;;;;;;;0.29;100.00;102646.19;5093137;28;20419;-67
2024/01/20 05:11:58;;;;;;;27.42;16.63;;;;;;;0.29;100.00;102639.97;5079449;28;20065;-67
2024/01/20 05:14:46;;;;;;;26.08;15.15;;;;;;;0.32;100.00;102643.19;5059481;28;20511;-67
2024/01/20 05:17:34;;;;;;;25.98;15.27;;;;;;;0.37;100.00;102646.25;5072989;28;20060;-66
2024/01/20 05:20:22;;;;;;;28.70;16.13;;;;;;;0.34;100.00;102651.09;5060347;28;20123;-67
2024/01/20 05:23:10;;;;;;;21.50;13.52;;;;;;;0.32;100.00;102643.19;5071546;28;20054;-66
2024/01/20 05:25:58;;;;;;;22.42;14.07;;;;;;;0.32;100.00;102659.28;5059241;28;20059;-66
2024/01/20 05:28:45;;;;;;;22.05;14.15;;;;;;;0.30;100.00;102665.81;5073913;28;20178;-67
2024/01/20 05:31:33;;;;;;;24.17;16.02;;;;;;;0.27;100.00;102672.31;5072823;28;20055;-67
2024/01/20 05:34:21;;;;;;;24.63;14.93;;;;;;;0.24;100.00;102667.25;5073794;28;20052;-66
2024/01/20 05:37:10;;;;;;;25.25;16.17;;;;;;;0.27;100.00;102661.59;5062535;28;20447;-66
2024/01/20 05:39:58;;;;;;;24.27;16.55;;;;;;;0.20;100.00;102666.72;5094780;28;20052;-68
2024/01/20 05:42:46;;;;;;;26.70;16.83;;;;;;;0.12;100.00;102658.63;5078253;28;20051;-66
2024/01/20 05:45:34;;;;;;;27.60;17.75;;;;;;;0.06;100.00;102663.75;5087594;28;20497;-67
2024/01/20 05:48:22;;;;;;;27.88;15.90;;;;;;;0.02;100.00;102663.19;5073860;28;20044;-67
2024/01/20 05:51:10;;;;;;;23.20;15.48;;;;;;;0.05;100.00;102668.25;5073827;28;20520;-67
2024/01/20 05:53:58;;;;;;;23.23;14.30;;;;;;;0.18;100.00;102662.50;5073787;28;20052;-67
2024/01/20 05:56:46;;;;;;;24.75;15.32;;;;;;;0.24;100.00;102661.91;5056926;28;20048;-66
2024/01/20 05:59:34;;;;;;;26.92;15.25;;;;;;;0.27;100.00;102666.13;5060135;28;20036;-67
2024/01/20 06:02:22;;;;;;;21.90;14.80;;;;;;;0.26;100.00;102673.28;5073928;28;20585;-68
2024/01/20 06:05:10;;;;;;;25.08;14.80;;;;;;;0.31;100.00;102670.16;5074839;28;20044;-67
2024/01/20 06:07:58;;;;;;;24.42;16.50;;;;;;;0.27;100.00;102669.63;5074388;28;20044;-66
2024/01/20 06:10:46;;;;;;;24.65;15.57;;;;;;;0.38;100.00;102674.72;5059386;28;20439;-68
2024/01/20 06:13:34;;;;;;;23.40;14.93;;;;;;;0.37;100.00;102683.78;5072257;28;20036;-67
2024/01/20 06:16:22;;;;;;;16.98;10.75;;;;;;;0.33;100.00;102676.19;5072369;28;20044;-66
2024/01/20 06:19:10;;;;;;;21.45;14.63;;;;;;;0.27;100.00;102682.19;5072144;28;20052;-67
2024/01/20 06:21:58;;;;;;;22.83;15.00;;;;;;;0.30;100.00;102689.94;5073840;28;20469;-65
2024/01/20 06:24:46;;;;;;;22.98;13.95;;;;;;;0.29;100.00;102696.25;5049923;28;20052;-67
2024/01/20 06:27:34;;;;;;;22.75;14.57;;;;;;;0.34;100.00;102694.00;5055287;28;20151;-66
2024/01/20 06:30:22;;;;;;;24.08;14.77;;;;;;;0.30;100.00;102690.75;5057016;28;20041;-66
2024/01/20 06:33:10;;;;;;;24.17;16.48;;;;;;;0.25;100.00;102687.69;5072019;28;20489;-67
2024/01/20 06:35:59;;;;;;;23.30;14.68;;;;;;;0.18;100.00;102698.19;5064279;28;20114;-66
2024/01/20 06:38:47;;;;;;;20.45;12.52;;;;;;;0.16;100.00;102692.13;5056262;28;20104;-66
2024/01/20 06:41:36;;;;;;;20.70;12.50;;;;;;;0.25;100.00;102690.38;5059458;28;20177;-66
2024/01/20 06:44:24;;;;;;;20.20;12.30;;;;;;;0.33;100.00;102697.66;5056594;28;20045;-67
2024/01/20 06:47:12;;;;;;;22.88;14.52;;;;;;;0.25;100.00;102695.75;5038959;28;20087;-67
2024/01/20 06:50:00;;;;;;;24.13;15.23;;;;;;;0.17;100.00;102703.72;5050911;28;20128;-66
2024/01/20 06:52:48;;;;;;;22.40;15.80;;;;;;;0.10;100.00;102699.97;5034869;28;20052;-67
2024/01/20 06:55:36;;;;;;;25.58;16.52;;;;;;;0.03;100.00;102712.28;5050486;28;20060;-65
2024/01/20 06:58:24;;;;;;;25.30;16.13;;;;;;;-0.05;100.00;102711.22;5051219;28;20087;-66
2024/01/20 07:01:12;;;;;;;23.65;16.52;;;;;;;-0.09;100.00;102715.16;5052661;28;20494;-66
2024/01/20 07:04:00;;;;;;;25.13;16.42;;;;;;;-0.07;100.00;102710.50;5050846;28;20045;-67
2024/01/20 07:06:48;;;;;;;26.50;16.00;;;;;;;-0.08;100.00;102711.50;5070482;28;20044;-66
2024/01/20 07:09:40;;;;;;;19.38;13.15;;;;;;;-0.06;100.00;102708.66;5070914;28;20131;-66
2024/01/20 07:12:28;;;;;;;15.65;8.88;;;;;;;0.08;100.00;102705.47;5071130;28;20834;-65
2024/01/20 07:15:17;;;;;;;21.20;14.18;;;;;;;0.13;100.00;102707.69;5077175;28;20040;-64
2024/01/20 07:18:06;;;;;;;21.65;15.25;;;;;;;0.11;100.00;102723.91;5077130;28;20049;-67
2024/01/20 07:20:54;;;;;;;26.42;17.48;;;;;;;0.06;100.00;102718.16;5066195;28;20068;-65
2024/01/20 07:23:42;;;;;;;25.05;15.77;;;;;;;-0.01;100.00;102717.94;5086758;28;20151;-67
2024/01/20 07:26:30;;;;;;;22.60;15.93;;;;;;;-0.03;100.00;102708.34;5059146;28;20390;-64
2024/01/20 07:29:18;;;;;;;25.77;16.67;;;;;;;-0.07;100.00;102707.00;5058055;28;20044;-64
2024/01/20 07:32:08;;;;;;;23.33;16.75;;;;;;;-0.08;100.00;102714.16;5091114;28;20044;-67
2024/01/20 07:34:56;;;;;;;23.20;15.45;;;;;;;-0.09;100.00;102714.34;5074956;28;20174;-65
2024/01/20 07:37:44;;;;;;;24.75;16.38;;;;;;;-0.07;100.00;102710.50;5087850;28;20049;-66
2024/01/20 07:40:32;;;;;;;24.25;15.60;;;;;;;-0.11;100.00;102708.28;5075606;28;20085;-65
2024/01/20 07:43:21;;;;;;;20.20;14.18;;;;;;;-0.15;100.00;102723.78;5090674;28;20125;-65
2024/01/20 07:46:09;;;;;;;18.50;11.88;;;;;;;-0.02;100.00;102726.97;5061444;28;20040;-67
2024/01/20 07:48:57;;;;;;;16.00;9.77;;;;;;;0.19;100.00;102724.03;5062503;28;20051;-65
2024/01/20 07:51:45;;;;;;;23.15;15.40;;;;;;;0.04;100.00;102736.22;5045787;28;20052;-66
2024/01/20 07:54:35;;;;;;;22.55;15.32;;;;;;;-0.07;100.00;102726.59;5061189;28;20060;-64
2024/01/20 07:57:23;;;;;;;24.00;16.33;;;;;;;-0.12;100.00;102730.69;5054167;28;20052;-66
2024/01/20 08:00:12;;;;;;;23.05;16.08;;;;;;;-0.12;100.00;102731.56;5043514;28;20044;-65
2024/01/20 08:03:00;;;;;;;24.85;16.75;;;;;;;-0.12;100.00;102739.59;5074703;28;20056;-65
2024/01/20 08:05:48;;;;;;;23.65;17.02;;;;;;;-0.10;100.00;102737.59;5045436;28;20060;-65
2024/01/20 08:08:36;;;;;;;25.20;17.48;;;;;;;-0.10;100.00;102742.09;5060593;28;20048;-65
2024/01/20 08:11:24;;;;;;;25.30;17.08;;;;;;;-0.11;100.00;102749.31;5038130;28;20417;-65
2024/01/20 08:14:12;;;;;;;22.27;16.20;;;;;;;-0.10;100.00;102748.31;5071416;28;20056;-66
2024/01/20 08:17:00;;;;;;;25.13;16.35;;;;;;;-0.10;100.00;102729.53;5075598;28;20158;-65
2024/01/20 08:19:49;;;;;;;25.60;16.83;;;;;;;-0.02;100.00;102743.06;5059937;28;20132;-65
2024/01/20 08:22:37;;;;;;;20.95;15.27;;;;;;;0.04;100.00;102746.13;5064793;28;20060;-65
2024/01/20 08:25:25;;;;;;;25.38;18.08;;;;;;;0.17;100.00;102746.59;5090561;28;20119;-65
2024/01/20 08:28:13;;;;;;;24.42;17.92;;;;;;;0.15;100.00;102756.63;5094176;28;20055;-65
2024/01/20 08:31:02;;;;;;;26.15;17.20;;;;;;;0.09;100.00;102755.38;5063276;28;20036;-65
2024/01/20 08:33:50;;;;;;;27.75;18.67;;;;;;;0.05;100.00;102758.50;5074920;28;20044;-66
2024/01/20 08:36:38;;;;;;;23.23;16.85;;;;;;;0.02;100.00;102753.47;5073758;28;20142;-66
2024/01/20 08:39:26;;;;;;;23.52;17.10;;;;;;;0.00;100.00;102761.66;5072433;28;20044;-65
2024/01/20 08:42:14;;;;;;;23.90;16.70;;;;;;;-0.02;100.00;102758.28;5076312;28;20047;-65
2024/01/20 08:45:03;;;;;;;26.35;17.92;;;;;;;0.01;100.00;102775.91;5061233;28;20048;-64
2024/01/20 08:47:51;;;;;;;24.40;16.95;;;;;;;-0.02;100.00;102769.84;5069637;28;20048;-67
2024/01/20 08:50:39;;;;;;;29.17;17.85;;;;;;;-0.06;100.00;102779.16;5060559;28;20186;-66
2024/01/20 08:53:27;;;;;;;26.55;17.52;;;;;;;-0.02;100.00;102780.56;5073928;28;20623;-66
2024/01/20 08:56:15;;;;;;;25.40;17.90;;;;;;;-0.01;100.00;102776.03;5059307;28;20063;-66
2024/01/20 08:59:03;;;;;;;24.73;17.10;;;;;;;0.01;100.00;102767.88;5072134;28;20449;-66
2024/01/20 09:01:51;;;;;;;25.58;17.75;;;;;;;-0.01;100.00;102779.56;5061286;28;20420;-65
2024/01/20 09:04:39;;;;;;;26.08;17.60;;;;;;;0.03;100.00;102779.28;5073067;28;20063;-66
2024/01/20 09:07:28;;;;;;;25.90;18.40;;;;;;;0.02;100.00;102789.13;5072658;28;20436;-65
2024/01/20 09:10:16;;;;;;;25.50;17.25;;;;;;;0.04;100.00;102789.84;5059699;28;20123;-65
2024/01/20 09:13:04;;;;;;;28.17;18.20;;;;;;;0.04;100.00;102784.47;5057653;28;20052;-65
2024/01/20 09:15:52;;;;;;;25.33;17.90;;;;;;;0.04;100.00;102783.63;5072585;28;20051;-65
2024/01/20 09:18:40;;;;;;;27.08;18.30;;;;;;;0.07;100.00;102781.47;5058464;28;20036;-65
2024/01/20 09:21:29;;;;;;;25.75;18.13;;;;;;;0.09;100.00;102784.88;5075438;28;20067;-66
2024/01/20 09:24:17;;;;;;;25.27;17.08;;;;;;;0.11;100.00;102795.44;5065626;28;20048;-65
2024/01/20 09:27:05;;;;;;;24.10;17.10;;;;;;;0.09;100.00;102790.22;5045668;28;20119;-67
2024/01/20 09:29:54;;;;;;;23.67;16.45;;;;;;;0.09;100.00;102803.63;5059867;28;20480;-66
2024/01/20 09:32:42;;;;;;;26.40;17.83;;;;;;;0.08;100.00;102793.06;5073272;28;20428;-66
2024/01/20 09:35:31;;;;;;;27.67;15.32;;;;;;;0.20;100.00;102799.91;5081059;28;20510;-67
2024/01/20 09:38:18;;;;;;;29.50;14.85;;;;;;;0.51;100.00;102794.22;5066105;28;20116;-66
2024/01/20 09:41:09;;;;;;;30.13;16.17;;;;;;;0.70;100.00;102799.41;5058376;28;20182;-65
2024/01/20 09:43:58;;;;;;;27.73;13.95;;;;;;;0.66;100.00;102794.50;5073105;28;20045;-65
2024/01/20 09:46:46;;;;;;;29.50;10.05;;;;;;;0.73;100.00;102807.16;5076797;28;20105;-66
2024/01/20 09:49:34;;;;;;;25.27;12.35;;;;;;;0.79;100.00;102806.50;5076474;28;20040;-65
2024/01/20 09:52:31;;;;;;;23.48;13.73;;;;;;;0.75;100.00;102801.63;5063734;28;20418;-66
2024/01/20 09:55:23;;;;;;;23.65;15.38;;;;;;;0.55;100.00;102804.44;5072489;28;20168;-65
2024/01/20 09:58:12;;;;;;;21.60;13.57;;;;;;;0.53;100.00;102817.19;5073421;28;20111;-65
2024/01/20 10:01:02;;;;;;;22.95;12.10;;;;;;;0.59;100.00;102813.03;5071583;28;20064;-65
2024/01/20 10:03:51;;;;;;;19.58;12.75;;;;;;;0.64;100.00;102813.44;5059924;28;20444;-65
2024/01/20 10:06:39;;;;;;;22.10;11.10;;;;;;;0.59;100.00;102821.09;5058401;28;20056;-66
2024/01/20 10:09:28;;;;;;;20.52;13.70;;;;;;;0.57;100.00;102815.88;5057266;28;20032;-65
2024/01/20 10:12:16;;;;;;;22.33;11.10;;;;;;;0.69;100.00;102815.66;5072627;28;20148;-65
2024/01/20 10:15:05;;;;;;;19.10;10.10;;;;;;;0.85;100.00;102815.81;5058125;28;20045;-65
2024/01/20 10:17:54;;;;;;;21.98;11.05;;;;;;;0.83;100.00;102813.25;5072844;28;20406;-66
2024/01/20 10:20:43;;;;;;;18.30;10.00;;;;;;;0.90;100.00;102808.13;5044640;28;20428;-65
2024/01/20 10:23:38;;;;;;;19.05;11.45;;;;;;;0.91;100.00;102825.06;5057231;28;20052;-65
2024/01/20 10:26:27;;;;;;;18.02;12.38;;;;;;;0.79;100.00;102821.78;5072595;28;20624;-65
2024/01/20 10:29:14;;;;;;;23.35;15.75;;;;;;;0.66;100.00;102832.91;5045313;28;20064;-65
2024/01/20 10:32:03;;;;;;;24.20;13.40;;;;;;;0.66;100.00;102826.69;5074460;28;20048;-65
2024/01/20 10:34:51;;;;;;;33.45;15.43;;;;;;;0.85;100.00;102830.06;5076102;28;20515;-65
2024/01/20 10:37:40;;;;;;;22.65;14.82;;;;;;;0.85;100.00;102838.13;5059016;28;20049;-65
2024/01/20 10:40:28;;;;;;;32.85;14.23;;;;;;;0.98;100.00;102834.19;5081839;28;20570;-64
2024/01/20 10:43:17;;;;;;;27.13;14.85;;;;;;;0.96;100.00;102838.88;5056032;28;20121;-65
2024/01/20 10:46:17;;;;;;;32.10;14.45;;;;;;;0.96;100.00;102833.50;5057030;28;20040;-65
2024/01/20 10:49:08;;;;;;;21.77;13.70;;;;;;;0.81;100.00;102831.34;5042651;28;20103;-66
2024/01/20 10:51:56;;;;;;;25.67;17.08;;;;;;;0.84;100.00;102830.19;5053325;28;20068;-65
2024/01/20 10:54:46;;;;;;;27.75;17.10;;;;;;;0.83;100.00;102833.91;5030760;28;20103;-66
2024/01/20 10:57:34;;;;;;;29.50;11.18;;;;;;;1.03;100.00;102821.16;5072984;28;20040;-65
2024/01/20 11:00:22;;;;;;;29.33;14.23;;;;;;;1.12;100.00;102824.75;5044470;28;20044;-66
2024/01/20 11:03:10;;;;;;;31.35;12.98;;;;;;;1.13;100.00;102821.06;5070931;28;20048;-64
2024/01/20 11:05:58;;;;;;;27.55;12.90;;;;;;;1.04;100.00;102826.38;5038318;28;20123;-66
2024/01/20 11:08:51;;;;;;;25.80;18.30;;;;;;;0.73;100.00;102825.09;5051670;28;20081;-66
2024/01/20 11:11:39;;;;;;;22.70;17.65;;;;;;;0.61;100.00;102821.78;5058268;28;20048;-66
2024/01/20 11:14:30;;;;;;;25.90;17.30;;;;;;;0.58;100.00;102812.22;5053354;28;20049;-65
2024/01/20 11:17:18;;;;;;;24.75;17.35;;;;;;;0.55;100.00;102814.34;5038757;28;20686;-65
2024/01/20 11:20:07;;;;;;;38.35;15.52;;;;;;;0.73;100.00;102817.88;5039668;28;20367;-66
2024/01/20 11:22:55;;;;;;;21.50;14.23;;;;;;;0.84;100.00;102820.34;5057236;28;20084;-66
2024/01/20 11:25:46;;;;;;;28.02;15.65;;;;;;;0.89;100.00;102810.97;5041354;28;20056;-66
2024/01/20 11:28:35;;;;;;;29.50;16.23;;;;;;;1.02;100.00;102808.72;5049459;28;20045;-66
2024/01/20 11:31:26;;;;;;;36.33;15.00;;;;;;;1.35;100.00;102800.91;5047207;28;20179;-65
2024/01/20 11:34:14;;;;;;;30.27;14.40;;;;;;;1.27;100.00;102794.50;5056753;28;20059;-66
2024/01/20 11:37:03;;;;;;;26.52;15.00;;;;;;;1.19;100.00;102788.22;5061747;28;20041;-62
2024/01/20 11:40:07;;;;;;;30.33;14.65;;;;;;;1.36;100.00;102786.47;5073831;28;20048;-65
2024/01/20 11:43:08;;;;;;;27.55;15.43;;;;;;;1.26;100.00;102779.38;5061690;28;20074;-65
2024/01/20 11:45:56;;;;;;;33.78;14.30;;;;;;;1.51;100.00;102782.19;5077927;28;20561;-66
2024/01/20 11:48:49;;;;;;;25.05;16.08;;;;;;;1.44;100.00;102773.09;5067174;28;20041;-62
2024/01/20 11:51:37;;;;;;;29.98;11.13;;;;;;;1.45;100.00;102783.69;5038702;28;20045;-65
2024/01/20 11:54:26;;;;;;;28.10;15.80;;;;;;;1.77;100.00;102781.31;5059733;28;20096;-65
2024/01/20 11:57:26;;;;;;;32.10;15.15;;;;;;;1.51;100.00;102773.31;5061668;28;20060;-65
2024/01/20 12:00:14;;;;;;;25.92;17.42;;;;;;;1.27;100.00;102783.75;5076594;28;20044;-65
2024/01/20 12:03:03;;;;;;;24.35;16.00;;;;;;;1.24;100.00;102776.00;5060000;28;20684;-65
2024/01/20 12:05:51;;;;;;;24.27;16.67;;;;;;;1.20;100.00;102782.72;5060261;28;20408;-66
2024/01/20 12:08:44;;;;;;;28.73;13.10;;;;;;;1.41;100.00;102776.09;5060462;28;20036;-64
2024/01/20 12:11:32;;;;;;;26.65;16.65;;;;;;;1.55;100.00;102774.69;5061395;28;20513;-65
2024/01/20 12:14:21;;;;;;;23.92;13.95;;;;;;;1.57;100.00;102768.13;5061121;28;20194;-64
2024/01/20 12:17:10;;;;;;;21.67;10.02;;;;;;;1.92;100.00;102764.44;5074119;28;20067;-65
2024/01/20 12:19:59;;;;;;;22.48;14.05;;;;;;;1.91;100.00;102760.06;5073983;28;20127;-66
2024/01/20 12:22:47;;;;;;;18.60;11.27;;;;;;;1.80;100.00;102762.19;5076428;28;20049;-65
2024/01/20 12:25:35;;;;;;;26.45;18.45;;;;;;;1.78;100.00;102761.50;5071855;28;20313;-65
2024/01/20 12:28:24;;;;;;;23.77;14.00;;;;;;;1.68;100.00;102769.69;5073056;28;20048;-64
2024/01/20 12:31:13;;;;;;;23.40;16.15;;;;;;;1.56;100.00;102749.47;5075271;28;20055;-66
2024/01/20 12:34:06;;;;;;;25.50;15.40;;;;;;;1.41;100.00;102751.94;5074249;28;20056;-63
2024/01/20 12:36:55;;;;;;;22.88;13.85;;;;;;;1.52;100.00;102740.09;5074244;28;20167;-65
2024/01/20 12:39:43;;;;;;;27.30;20.42;;;;;;;1.22;100.00;102751.16;5041945;28;20091;-66
2024/01/20 12:42:31;;;;;;;27.95;18.63;;;;;;;1.05;100.00;102739.47;5059676;28;20546;-66
2024/01/20 12:45:19;;;;;;;25.90;18.75;;;;;;;0.99;100.00;102748.16;5058222;28;20040;-65